sensor_id;sensor_type;location;lat;lon;timestamp;temperature;humidity
10143;DHT22;5112;54.088;13.446;2023-04-23T00:07:24;14.40;99.90
10143;DHT22;5112;54.088;13.446;2023-04-23T00:17:28;14.30;99.90
10143;DHT22;5112;54.088;13.446;2023-04-23T00:27:30;14.30;99.90
10143;DHT22;5112;54.088;13.446;2023-04-23T00:37:33;14.30;99.90
10143;DHT22;5112;54.088;13.446;2023-04-23T00:47:35;14.00;99.90
10143;DHT22;5112;54.088;13.446;2023-04-23T00:57:38;14.00;99.90
10143;DHT22;5112;54.088;13.446;2023-04-23T01:07:41;13.90;99.90
10143;DHT22;5112;54.088;13.446;2023-04-23T01:17:45;14.10;99.90
10143;DHT22;5112;54.088;13.446;2023-04-23T01:27:48;14.00;99.90
10143;DHT22;5112;54.088;13.446;2023-04-23T01:37:50;13.80;99.90
10143;DHT22;5112;54.088;13.446;2023-04-23T01:47:55;13.60;99.90
10143;DHT22;5112;54.088;13.446;2023-04-23T01:57:57;13.60;99.90
10143;DHT22;5112;54.088;13.446;2023-04-23T02:08:00;13.40;99.90
10143;DHT22;5112;54.088;13.446;2023-04-23T02:18:02;13.40;99.90
10143;DHT22;5112;54.088;13.446;2023-04-23T02:28:06;13.10;99.90
10143;DHT22;5112;54.088;13.446;2023-04-23T02:38:07;13.00;99.90
10143;DHT22;5112;54.088;13.446;2023-04-23T02:48:10;12.90;99.90
10143;DHT22;5112;54.088;13.446;2023-04-23T02:58:12;12.90;99.90
10143;DHT22;5112;54.088;13.446;2023-04-23T03:08:15;12.90;99.90
10143;DHT22;5112;54.088;13.446;2023-04-23T03:18:17;12.90;99.90
10143;DHT22;5112;54.088;13.446;2023-04-23T03:28:20;13.00;99.90
10143;DHT22;5112;54.088;13.446;2023-04-23T03:38:22;13.10;99.90
10143;DHT22;5112;54.088;13.446;2023-04-23T03:48:25;13.00;99.90
10143;DHT22;5112;54.088;13.446;2023-04-23T03:58:27;13.00;99.90
10143;DHT22;5112;54.088;13.446;2023-04-23T04:08:30;12.90;99.90
10143;DHT22;5112;54.088;13.446;2023-04-23T04:18:31;12.90;99.90
10143;DHT22;5112;54.088;13.446;2023-04-23T04:28:34;12.90;99.90
10143;DHT22;5112;54.088;13.446;2023-04-23T04:38:36;12.90;99.90
10143;DHT22;5112;54.088;13.446;2023-04-23T04:48:40;12.90;99.90
10143;DHT22;5112;54.088;13.446;2023-04-23T04:58:41;13.00;99.90
10143;DHT22;5112;54.088;13.446;2023-04-23T05:08:44;13.10;99.90
10143;DHT22;5112;54.088;13.446;2023-04-23T05:18:47;13.00;99.90
10143;DHT22;5112;54.088;13.446;2023-04-23T05:28:50;13.00;99.90
10143;DHT22;5112;54.088;13.446;2023-04-23T05:38:52;13.00;99.90
10143;DHT22;5112;54.088;13.446;2023-04-23T05:48:55;13.10;99.90
10143;DHT22;5112;54.088;13.446;2023-04-23T05:58:56;13.40;99.90
10143;DHT22;5112;54.088;13.446;2023-04-23T06:08:59;13.70;99.90
10143;DHT22;5112;54.088;13.446;2023-04-23T06:19:02;13.80;99.90
10143;DHT22;5112;54.088;13.446;2023-04-23T06:29:05;14.10;99.90
10143;DHT22;5112;54.088;13.446;2023-04-23T06:39:07;14.30;99.90
10143;DHT22;5112;54.088;13.446;2023-04-23T06:49:10;14.50;99.90
10143;DHT22;5112;54.088;13.446;2023-04-23T06:59:11;14.50;99.90
10143;DHT22;5112;54.088;13.446;2023-04-23T07:09:14;14.70;99.90
10143;DHT22;5112;54.088;13.446;2023-04-23T07:19:16;15.00;99.90
10143;DHT22;5112;54.088;13.446;2023-04-23T07:29:19;15.10;99.90
10143;DHT22;5112;54.088;13.446;2023-04-23T07:39:21;15.30;99.90
10143;DHT22;5112;54.088;13.446;2023-04-23T07:49:24;15.10;99.90
10143;DHT22;5112;54.088;13.446;2023-04-23T07:59:25;14.70;99.90
10143;DHT22;5112;54.088;13.446;2023-04-23T08:09:28;14.50;99.90
10143;DHT22;5112;54.088;13.446;2023-04-23T08:19:30;14.30;99.90
10143;DHT22;5112;54.088;13.446;2023-04-23T08:29:34;14.10;99.90
10143;DHT22;5112;54.088;13.446;2023-04-23T08:39:36;14.00;99.90
10143;DHT22;5112;54.088;13.446;2023-04-23T08:49:41;13.60;99.90
10143;DHT22;5112;54.088;13.446;2023-04-23T08:59:46;13.50;99.90
10143;DHT22;5112;54.088;13.446;2023-04-23T09:09:49;13.60;99.90
10143;DHT22;5112;54.088;13.446;2023-04-23T09:19:53;13.40;99.90
10143;DHT22;5112;54.088;13.446;2023-04-23T09:29:56;13.20;99.90
10143;DHT22;5112;54.088;13.446;2023-04-23T09:39:59;12.80;99.90
10143;DHT22;5112;54.088;13.446;2023-04-23T09:50:02;12.20;99.90
10143;DHT22;5112;54.088;13.446;2023-04-23T10:00:15;11.70;99.90
10143;DHT22;5112;54.088;13.446;2023-04-23T10:10:19;11.30;99.90
10143;DHT22;5112;54.088;13.446;2023-04-23T10:20:21;11.40;99.90
10143;DHT22;5112;54.088;13.446;2023-04-23T10:30:25;11.50;99.90
10143;DHT22;5112;54.088;13.446;2023-04-23T10:40:30;11.60;99.90
10143;DHT22;5112;54.088;13.446;2023-04-23T10:50:36;11.50;99.90
10143;DHT22;5112;54.088;13.446;2023-04-23T11:00:46;11.50;99.90
10143;DHT22;5112;54.088;13.446;2023-04-23T11:10:55;11.40;99.90
10143;DHT22;5112;54.088;13.446;2023-04-23T11:20:57;11.40;99.90
10143;DHT22;5112;54.088;13.446;2023-04-23T11:31:01;11.40;99.90
10143;DHT22;5112;54.088;13.446;2023-04-23T11:41:03;11.30;99.90
10143;DHT22;5112;54.088;13.446;2023-04-23T11:51:07;11.10;99.90
10143;DHT22;5112;54.088;13.446;2023-04-23T12:01:09;11.30;99.90
10143;DHT22;5112;54.088;13.446;2023-04-23T12:11:13;11.50;99.90
10143;DHT22;5112;54.088;13.446;2023-04-23T12:21:15;11.30;99.90
10143;DHT22;5112;54.088;13.446;2023-04-23T12:31:20;11.90;99.90
10143;DHT22;5112;54.088;13.446;2023-04-23T12:41:22;12.50;99.90
10143;DHT22;5112;54.088;13.446;2023-04-23T12:51:25;12.50;99.90
10143;DHT22;5112;54.088;13.446;2023-04-23T13:01:27;12.80;99.90
10143;DHT22;5112;54.088;13.446;2023-04-23T13:11:30;12.80;99.90
10143;DHT22;5112;54.088;13.446;2023-04-23T13:21:32;13.50;99.90
10143;DHT22;5112;54.088;13.446;2023-04-23T13:31:36;13.40;99.90
10143;DHT22;5112;54.088;13.446;2023-04-23T13:41:38;13.50;99.90
10143;DHT22;5112;54.088;13.446;2023-04-23T13:51:41;15.10;99.90
10143;DHT22;5112;54.088;13.446;2023-04-23T14:01:42;14.90;99.90
10143;DHT22;5112;54.088;13.446;2023-04-23T14:11:47;15.10;99.90
10143;DHT22;5112;54.088;13.446;2023-04-23T14:21:49;15.30;99.90
10143;DHT22;5112;54.088;13.446;2023-04-23T14:31:52;15.80;99.90
10143;DHT22;5112;54.088;13.446;2023-04-23T14:41:54;15.90;99.90
10143;DHT22;5112;54.088;13.446;2023-04-23T14:51:57;16.50;99.90
10143;DHT22;5112;54.088;13.446;2023-04-23T15:01:59;16.20;99.90
10143;DHT22;5112;54.088;13.446;2023-04-23T15:12:05;16.30;99.90
10143;DHT22;5112;54.088;13.446;2023-04-23T15:22:27;16.00;99.90
10143;DHT22;5112;54.088;13.446;2023-04-23T15:32:30;15.90;99.90
10143;DHT22;5112;54.088;13.446;2023-04-23T15:42:31;16.00;99.90
10143;DHT22;5112;54.088;13.446;2023-04-23T15:52:35;15.50;99.90
10143;DHT22;5112;54.088;13.446;2023-04-23T16:02:36;15.70;99.90
10143;DHT22;5112;54.088;13.446;2023-04-23T16:12:39;16.10;99.90
10143;DHT22;5112;54.088;13.446;2023-04-23T16:22:44;16.30;99.90
10143;DHT22;5112;54.088;13.446;2023-04-23T16:32:47;16.20;99.90
10143;DHT22;5112;54.088;13.446;2023-04-23T16:42:49;15.80;99.90
10143;DHT22;5112;54.088;13.446;2023-04-23T16:52:52;15.60;99.90
10143;DHT22;5112;54.088;13.446;2023-04-23T17:02:54;15.20;99.90
10143;DHT22;5112;54.088;13.446;2023-04-23T17:12:58;15.60;99.90
10143;DHT22;5112;54.088;13.446;2023-04-23T17:23:00;15.10;99.90
10143;DHT22;5112;54.088;13.446;2023-04-23T17:33:03;14.10;99.90
10143;DHT22;5112;54.088;13.446;2023-04-23T17:43:05;13.70;99.90
10143;DHT22;5112;54.088;13.446;2023-04-23T17:53:08;13.50;99.90
10143;DHT22;5112;54.088;13.446;2023-04-23T18:03:10;13.20;99.90
10143;DHT22;5112;54.088;13.446;2023-04-23T18:13:17;12.90;99.90
10143;DHT22;5112;54.088;13.446;2023-04-23T18:23:18;12.60;99.90
10143;DHT22;5112;54.088;13.446;2023-04-23T18:33:35;12.40;99.90
10143;DHT22;5112;54.088;13.446;2023-04-23T18:43:40;12.10;99.90
10143;DHT22;5112;54.088;13.446;2023-04-23T18:53:44;11.90;99.90
10143;DHT22;5112;54.088;13.446;2023-04-23T19:03:46;11.40;99.90
10143;DHT22;5112;54.088;13.446;2023-04-23T19:13:49;11.20;99.90
10143;DHT22;5112;54.088;13.446;2023-04-23T19:23:51;11.00;99.90
10143;DHT22;5112;54.088;13.446;2023-04-23T19:33:54;10.70;99.90
10143;DHT22;5112;54.088;13.446;2023-04-23T19:43:56;10.50;99.90
10143;DHT22;5112;54.088;13.446;2023-04-23T19:53:59;10.40;99.90
10143;DHT22;5112;54.088;13.446;2023-04-23T20:04:01;10.10;99.90
10143;DHT22;5112;54.088;13.446;2023-04-23T20:14:07;9.90;99.90
10143;DHT22;5112;54.088;13.446;2023-04-23T20:24:10;9.80;99.90
10143;DHT22;5112;54.088;13.446;2023-04-23T20:34:13;9.60;99.90
10143;DHT22;5112;54.088;13.446;2023-04-23T20:44:15;9.60;99.90
10143;DHT22;5112;54.088;13.446;2023-04-23T20:54:18;9.50;99.90
10143;DHT22;5112;54.088;13.446;2023-04-23T21:04:20;9.40;99.90
10143;DHT22;5112;54.088;13.446;2023-04-23T21:14:23;9.30;99.90
10143;DHT22;5112;54.088;13.446;2023-04-23T21:24:25;9.30;99.90
10143;DHT22;5112;54.088;13.446;2023-04-23T21:34:28;9.20;99.90
10143;DHT22;5112;54.088;13.446;2023-04-23T21:44:30;9.20;99.90
10143;DHT22;5112;54.088;13.446;2023-04-23T21:54:33;9.10;99.90
10143;DHT22;5112;54.088;13.446;2023-04-23T22:04:35;9.00;99.90
10143;DHT22;5112;54.088;13.446;2023-04-23T22:14:38;8.90;99.90
10143;DHT22;5112;54.088;13.446;2023-04-23T22:24:39;8.70;99.90
10143;DHT22;5112;54.088;13.446;2023-04-23T22:34:42;8.70;99.90
10143;DHT22;5112;54.088;13.446;2023-04-23T22:44:44;8.60;99.90
10143;DHT22;5112;54.088;13.446;2023-04-23T22:54:47;8.50;99.90
10143;DHT22;5112;54.088;13.446;2023-04-23T23:04:49;8.50;99.90
10143;DHT22;5112;54.088;13.446;2023-04-23T23:14:52;8.20;99.90
10143;DHT22;5112;54.088;13.446;2023-04-23T23:24:53;8.20;99.90
10143;DHT22;5112;54.088;13.446;2023-04-23T23:34:57;8.00;99.90
10143;DHT22;5112;54.088;13.446;2023-04-23T23:44:59;8.40;99.90
10143;DHT22;5112;54.088;13.446;2023-04-23T23:55:03;9.00;99.90
